Time;durP1;ratioP1;P1;durP2;ratioP2;P2;SDS_P1;SDS_P2;PMS_P1;PMS_P2;Temp;Humidity;BMP_temperature;BMP_pressure;BME280_temperature;BME280_humidity;BME280_pressure;Samples;Min_cycle;Max_cycle;Signal;HPM_P1;HPM_P2
2022/08/16 00:01:00;;;;;;;8.73;6.78;;;;;;;20.40;67.30;100465.06;5086788;28;20036;-74
2022/08/16 00:03:26;;;;;;;10.02;6.97;;;;;;;20.38;67.50;100466.97;5087142;28;20048;-74
2022/08/16 00:05:51;;;;;;;12.93;6.88;;;;;;;20.35;67.59;100467.19;5084964;28;20034;-74
2022/08/16 00:08:18;;;;;;;7.18;6.35;;;;;;;20.32;67.70;100475.38;5089031;28;20032;-74
2022/08/16 00:10:44;;;;;;;10.68;6.97;;;;;;;20.30;68.18;100474.63;5085502;28;20032;-73
2022/08/16 00:13:10;;;;;;;10.88;6.80;;;;;;;20.23;68.28;100479.53;5089162;28;20043;-73
2022/08/16 00:15:42;;;;;;;11.30;6.80;;;;;;;20.19;68.64;100477.19;5087924;28;20035;-74
2022/08/16 00:18:11;;;;;;;10.13;7.10;;;;;;;20.13;68.90;100474.06;5085138;28;20024;-73
2022/08/16 00:20:38;;;;;;;9.00;7.15;;;;;;;20.07;69.33;100474.50;5086484;28;20026;-74
2022/08/16 00:23:04;;;;;;;12.75;7.15;;;;;;;20.06;69.92;100483.38;5087100;28;20020;-73
2022/08/16 00:25:30;;;;;;;8.32;6.88;;;;;;;20.02;68.95;100487.16;5084038;28;20032;-74
2022/08/16 00:27:55;;;;;;;7.90;6.20;;;;;;;19.97;69.70;100490.16;5085956;28;20028;-74
2022/08/16 00:30:22;;;;;;;7.70;6.65;;;;;;;19.95;69.72;100491.22;5085961;28;20434;-74
2022/08/16 00:32:50;;;;;;;9.52;6.50;;;;;;;19.93;69.12;100487.84;5089143;28;20017;-74
2022/08/16 00:35:20;;;;;;;8.63;7.07;;;;;;;19.89;69.24;100491.63;5091043;28;20467;-74
2022/08/16 00:37:46;;;;;;;9.70;7.50;;;;;;;19.86;68.40;100492.69;5088502;28;20063;-74
2022/08/16 00:40:24;;;;;;;8.25;7.40;;;;;;;19.83;68.11;100488.44;5085333;28;20032;-74
2022/08/16 00:42:49;;;;;;;8.73;6.75;;;;;;;19.78;69.45;100489.72;5090504;28;20028;-74
2022/08/16 00:45:32;;;;;;;10.77;7.05;;;;;;;19.75;69.46;100500.50;5086468;28;20023;-74
2022/08/16 00:47:58;;;;;;;9.48;6.55;;;;;;;19.68;69.44;100495.66;5085179;28;20050;-74
2022/08/16 00:50:28;;;;;;;10.35;6.85;;;;;;;19.64;69.60;100498.63;5087528;28;20475;-72
2022/08/16 00:52:53;;;;;;;8.27;6.43;;;;;;;19.59;70.42;100495.47;5089682;28;20035;-72
2022/08/16 00:55:23;;;;;;;8.07;6.43;;;;;;;19.53;70.42;100497.56;5084875;28;20028;-72
2022/08/16 00:57:53;;;;;;;9.82;6.82;;;;;;;19.49;70.37;100495.25;5084497;28;20475;-72
2022/08/16 01:00:18;;;;;;;7.97;6.47;;;;;;;19.44;70.21;100503.50;5083356;28;20030;-72
2022/08/16 01:02:43;;;;;;;7.85;6.20;;;;;;;19.41;70.42;100503.69;5086956;28;20384;-73
2022/08/16 01:05:09;;;;;;;8.43;6.43;;;;;;;19.37;70.91;100491.66;5085354;28;20032;-71
2022/08/16 01:07:35;;;;;;;8.02;6.15;;;;;;;19.33;70.34;100501.59;5082856;28;20110;-71
2022/08/16 01:10:00;;;;;;;8.55;6.43;;;;;;;19.30;70.80;100500.97;5086034;28;20031;-72
2022/08/16 01:12:26;;;;;;;10.25;6.78;;;;;;;19.27;70.84;100496.72;5087792;28;20119;-72
2022/08/16 01:14:54;;;;;;;9.40;6.70;;;;;;;19.26;70.63;100498.53;5086199;28;20123;-72
2022/08/16 01:17:21;;;;;;;9.85;6.95;;;;;;;19.26;70.50;100490.59;5086456;28;20779;-72
2022/08/16 01:19:53;;;;;;;8.68;7.00;;;;;;;19.28;70.17;100492.28;5085539;28;20396;-72
2022/08/16 01:22:32;;;;;;;8.70;6.88;;;;;;;19.25;69.92;100494.19;5087840;28;20479;-71
2022/08/16 01:25:04;;;;;;;11.32;7.22;;;;;;;19.23;70.53;100501.34;5086806;28;20040;-72
2022/08/16 01:27:35;;;;;;;10.18;7.00;;;;;;;19.19;70.73;100506.94;5083293;28;20900;-72
2022/08/16 01:30:11;;;;;;;10.52;7.45;;;;;;;19.18;70.91;100503.44;5087329;28;20079;-72
2022/08/16 01:32:41;;;;;;;12.00;7.35;;;;;;;19.19;70.49;100504.31;5084471;28;20016;-72
2022/08/16 01:35:21;;;;;;;8.85;7.30;;;;;;;19.18;69.63;100487.63;5086680;28;20031;-72
2022/08/16 01:37:52;;;;;;;9.98;7.90;;;;;;;19.16;70.29;100491.34;5087620;28;20089;-72
2022/08/16 01:40:23;;;;;;;9.85;7.88;;;;;;;19.13;70.43;100489.72;5085018;28;20053;-72
2022/08/16 01:42:49;;;;;;;9.75;8.07;;;;;;;19.10;70.36;100490.78;5082843;28;20016;-71
2022/08/16 01:45:17;;;;;;;10.85;7.70;;;;;;;19.08;70.54;100492.69;5085899;28;20015;-72
2022/08/16 01:47:44;;;;;;;9.93;7.15;;;;;;;19.06;70.73;100489.31;5084598;28;20537;-71
2022/08/16 01:50:10;;;;;;;10.65;7.97;;;;;;;19.04;70.28;100482.44;5083425;28;20471;-73
2022/08/16 01:52:36;;;;;;;9.75;8.38;;;;;;;19.02;70.85;100484.34;5082510;28;20032;-72
2022/08/16 01:55:03;;;;;;;11.43;8.45;;;;;;;18.99;72.16;100487.19;5086350;28;20536;-71
2022/08/16 01:57:28;;;;;;;11.38;8.57;;;;;;;18.95;71.86;100492.69;5085944;28;20088;-71
2022/08/16 01:59:54;;;;;;;10.10;8.57;;;;;;;18.93;72.37;100491.91;5081571;28;20029;-72
2022/08/16 02:02:22;;;;;;;11.15;8.05;;;;;;;18.93;72.55;100486.63;5081057;28;21615;-71
2022/08/16 02:04:47;;;;;;;11.48;8.25;;;;;;;18.91;71.88;100480.63;5085324;28;20110;-72
2022/08/16 02:07:14;;;;;;;11.32;8.60;;;;;;;18.90;72.59;100493.88;5086767;28;20157;-72
2022/08/16 02:09:40;;;;;;;12.30;8.82;;;;;;;18.86;72.72;100487.97;5085090;28;20077;-72
2022/08/16 02:12:07;;;;;;;11.77;8.48;;;;;;;18.84;72.80;100492.50;5084995;28;20016;-71
2022/08/16 02:14:33;;;;;;;11.40;8.90;;;;;;;18.85;72.62;100496.00;5082010;28;20035;-72
2022/08/16 02:17:01;;;;;;;10.90;8.30;;;;;;;18.83;72.56;100498.72;5084913;28;20387;-71
2022/08/16 02:19:29;;;;;;;9.75;8.38;;;;;;;18.83;72.71;100495.25;5085841;28;20031;-72
2022/08/16 02:21:56;;;;;;;11.13;8.68;;;;;;;18.80;72.86;100488.38;5083141;28;20024;-72
2022/08/16 02:24:21;;;;;;;11.23;8.45;;;;;;;18.77;73.07;100484.16;5086706;28;20107;-72
2022/08/16 02:26:47;;;;;;;13.02;8.57;;;;;;;18.76;72.50;100485.09;5086994;28;20160;-72
2022/08/16 02:29:14;;;;;;;9.90;8.52;;;;;;;18.74;72.27;100484.34;5085130;28;20395;-71
2022/08/16 02:31:39;;;;;;;10.55;8.25;;;;;;;18.74;72.55;100483.53;5081132;28;20032;-72
2022/08/16 02:34:06;;;;;;;11.75;8.27;;;;;;;18.73;72.42;100495.00;5080844;28;20024;-71
2022/08/16 02:36:32;;;;;;;11.32;8.35;;;;;;;18.73;72.58;100497.66;5083467;28;20028;-72
2022/08/16 02:38:58;;;;;;;9.52;8.50;;;;;;;18.69;72.62;100486.47;5087170;28;20086;-71
2022/08/16 02:41:23;;;;;;;9.43;8.13;;;;;;;18.67;72.59;100488.34;5085594;28;20012;-71
2022/08/16 02:43:48;;;;;;;11.10;8.38;;;;;;;18.65;72.55;100491.06;5084140;28;20074;-71
2022/08/16 02:46:13;;;;;;;10.90;8.57;;;;;;;18.63;72.51;100489.50;5081571;28;20031;-72
2022/08/16 02:48:39;;;;;;;10.80;8.43;;;;;;;18.62;72.89;100493.91;5089803;28;20032;-72
2022/08/16 02:51:06;;;;;;;12.60;9.07;;;;;;;18.61;72.97;100488.75;5085613;28;20024;-71
2022/08/16 02:53:32;;;;;;;10.70;8.40;;;;;;;18.56;72.65;100494.31;5085848;28;20550;-72
2022/08/16 02:55:57;;;;;;;10.43;8.55;;;;;;;18.55;72.80;100489.13;5085727;28;20106;-71
2022/08/16 02:58:23;;;;;;;10.88;8.88;;;;;;;18.53;73.18;100486.63;5084993;28;20027;-72
2022/08/16 03:00:49;;;;;;;9.98;8.63;;;;;;;18.50;73.07;100481.53;5077443;28;20047;-72
2022/08/16 03:03:14;;;;;;;11.32;8.55;;;;;;;18.47;73.17;100482.59;5082785;28;20095;-72
2022/08/16 03:05:40;;;;;;;10.75;9.02;;;;;;;18.47;72.91;100484.38;5081187;28;20111;-72
2022/08/16 03:08:06;;;;;;;12.07;9.15;;;;;;;18.44;73.42;100479.31;5086262;28;20035;-71
2022/08/16 03:10:31;;;;;;;10.98;8.77;;;;;;;18.41;73.16;100471.63;5082008;28;20639;-71
2022/08/16 03:12:58;;;;;;;12.02;9.10;;;;;;;18.39;73.04;100474.34;5082798;28;20718;-72
2022/08/16 03:15:23;;;;;;;11.70;9.38;;;;;;;18.34;73.43;100477.28;5082107;28;20168;-71
2022/08/16 03:17:48;;;;;;;13.25;9.35;;;;;;;18.33;73.19;100478.22;5083786;28;20417;-71
2022/08/16 03:20:15;;;;;;;10.18;8.48;;;;;;;18.31;73.50;100477.47;5084334;28;20035;-72
2022/08/16 03:22:40;;;;;;;13.68;8.75;;;;;;;18.29;73.58;100475.88;5083728;28;20055;-71
2022/08/16 03:25:09;;;;;;;11.32;8.75;;;;;;;18.27;73.09;100480.41;5080348;28;20101;-72
2022/08/16 03:27:37;;;;;;;11.65;8.75;;;;;;;18.24;73.11;100481.44;5086728;28;20024;-71
2022/08/16 03:30:14;;;;;;;13.90;9.52;;;;;;;18.22;73.10;100483.31;5085579;28;20500;-72
2022/08/16 03:32:40;;;;;;;11.10;8.80;;;;;;;18.18;73.94;100487.09;5083568;28;20028;-72
2022/08/16 03:35:06;;;;;;;11.27;8.57;;;;;;;18.17;73.54;100485.41;5084631;28;20436;-72
2022/08/16 03:37:31;;;;;;;12.68;9.10;;;;;;;18.14;73.66;100481.19;5085813;28;20492;-71
2022/08/16 03:39:57;;;;;;;13.38;9.30;;;;;;;18.14;73.87;100485.59;5084141;28;20107;-71
2022/08/16 03:42:22;;;;;;;11.40;9.07;;;;;;;18.11;73.03;100478.75;5086046;28;20066;-71
2022/08/16 03:44:48;;;;;;;11.48;9.57;;;;;;;18.09;73.74;100488.53;5086936;28;20057;-71
2022/08/16 03:47:14;;;;;;;12.70;9.40;;;;;;;18.08;74.09;100496.53;5086612;28;20107;-71
2022/08/16 03:49:39;;;;;;;12.93;8.90;;;;;;;18.05;74.32;100502.81;5085264;28;20387;-71
2022/08/16 03:52:06;;;;;;;12.95;9.23;;;;;;;18.05;74.14;100505.44;5090212;28;20065;-71
2022/08/16 03:54:31;;;;;;;9.80;8.57;;;;;;;18.04;74.40;100503.75;5089506;28;20448;-71
2022/08/16 03:56:57;;;;;;;10.95;8.32;;;;;;;18.04;73.06;100503.75;5087758;28;20088;-71
2022/08/16 03:59:22;;;;;;;10.27;8.77;;;;;;;18.01;72.99;100511.88;5086324;28;20097;-71
2022/08/16 04:01:47;;;;;;;10.77;8.90;;;;;;;17.96;74.35;100514.72;5085992;28;20017;-71
2022/08/16 04:04:13;;;;;;;13.05;9.18;;;;;;;17.93;74.05;100517.56;5087090;28;20573;-71
2022/08/16 04:06:38;;;;;;;14.25;9.27;;;;;;;17.93;74.10;100524.59;5087791;28;20028;-71
2022/08/16 04:09:04;;;;;;;12.20;8.98;;;;;;;17.91;74.61;100522.09;5086918;28;20471;-72
2022/08/16 04:11:29;;;;;;;11.15;9.40;;;;;;;17.89;74.53;100529.22;5086045;28;20028;-71
2022/08/16 04:13:54;;;;;;;12.27;9.35;;;;;;;17.88;74.93;100519.63;5089615;28;20459;-71
2022/08/16 04:16:20;;;;;;;11.73;9.10;;;;;;;17.87;74.57;100526.66;5084369;28;20295;-71
2022/08/16 04:18:47;;;;;;;12.50;9.27;;;;;;;17.85;74.64;100527.72;5085429;28;20035;-72
2022/08/16 04:21:12;;;;;;;13.77;9.68;;;;;;;17.84;74.74;100532.16;5085546;28;20418;-72
2022/08/16 04:23:37;;;;;;;13.18;9.38;;;;;;;17.84;74.83;100531.28;5085384;28;20050;-72
2022/08/16 04:26:04;;;;;;;16.60;9.95;;;;;;;17.82;74.85;100533.16;5083649;28;20036;-71
2022/08/16 04:28:30;;;;;;;12.57;9.40;;;;;;;17.80;75.18;100540.31;5086605;28;20719;-71
2022/08/16 04:30:55;;;;;;;17.67;9.90;;;;;;;17.79;74.99;100533.34;5085885;28;20048;-71
2022/08/16 04:33:20;;;;;;;16.70;10.02;;;;;;;17.76;74.91;100534.38;5089908;28;20682;-72
2022/08/16 04:35:46;;;;;;;11.82;9.88;;;;;;;17.75;75.19;100530.94;5088582;28;20031;-74
2022/08/16 04:38:11;;;;;;;14.25;10.40;;;;;;;17.76;75.26;100523.88;5081421;28;20023;-71
2022/08/16 04:40:37;;;;;;;11.98;9.43;;;;;;;17.75;75.21;100528.28;5086999;28;20043;-74
2022/08/16 04:43:02;;;;;;;12.77;10.02;;;;;;;17.73;75.21;100527.53;5089216;28;20184;-72
2022/08/16 04:45:28;;;;;;;14.25;9.93;;;;;;;17.73;75.05;100519.66;5086254;28;20059;-71
2022/08/16 04:47:54;;;;;;;12.82;10.18;;;;;;;17.72;75.37;100528.47;5087579;28;20027;-71
2022/08/16 04:50:26;;;;;;;11.93;10.13;;;;;;;17.73;75.49;100529.31;5089025;28;20024;-72
2022/08/16 04:52:52;;;;;;;18.92;9.75;;;;;;;17.70;75.45;100525.09;5087083;28;20480;-71
2022/08/16 04:55:22;;;;;;;14.77;10.52;;;;;;;17.71;75.17;100526.78;5085054;28;20031;-72
2022/08/16 04:57:49;;;;;;;15.52;11.30;;;;;;;17.71;75.76;100532.03;5085478;28;20059;-72
2022/08/16 05:00:21;;;;;;;17.25;11.30;;;;;;;17.73;75.45;100531.94;5085821;28;20836;-72
2022/08/16 05:02:49;;;;;;;17.45;11.75;;;;;;;17.73;75.95;100535.44;5083992;28;20025;-71
2022/08/16 05:05:14;;;;;;;17.13;12.10;;;;;;;17.75;75.71;100533.56;5084336;28;20051;-71
2022/08/16 05:07:39;;;;;;;16.65;11.77;;;;;;;17.78;75.79;100542.16;5089518;28;20492;-71
2022/08/16 05:10:07;;;;;;;19.27;12.25;;;;;;;17.82;75.75;100543.69;5085763;28;20026;-71
2022/08/16 05:12:32;;;;;;;15.70;11.18;;;;;;;17.83;75.37;100545.38;5087713;28;20024;-71
2022/08/16 05:14:58;;;;;;;16.83;11.40;;;;;;;17.85;75.71;100548.75;5090072;28;20490;-71
2022/08/16 05:17:24;;;;;;;15.95;11.60;;;;;;;17.90;75.46;100542.28;5088087;28;20024;-72
2022/08/16 05:19:49;;;;;;;16.35;11.20;;;;;;;17.92;75.47;100547.47;5087551;28;20178;-72
2022/08/16 05:22:15;;;;;;;12.88;10.00;;;;;;;17.93;75.79;100543.91;5085691;28;20459;-72
2022/08/16 05:24:40;;;;;;;15.30;10.07;;;;;;;17.95;75.69;100549.88;5087351;28;20024;-71
2022/08/16 05:27:06;;;;;;;14.32;10.55;;;;;;;17.99;75.20;100548.78;5086631;28;20560;-71
2022/08/16 05:29:31;;;;;;;12.85;10.25;;;;;;;18.01;75.25;100549.53;5087007;28;20048;-72
2022/08/16 05:31:57;;;;;;;15.48;10.27;;;;;;;18.05;75.39;100556.31;5084507;28;20093;-72
2022/08/16 05:34:23;;;;;;;15.93;10.85;;;;;;;18.09;75.27;100556.13;5086015;28;20445;-71
2022/08/16 05:36:49;;;;;;;12.63;10.20;;;;;;;18.10;75.14;100553.41;5088454;28;20028;-72
2022/08/16 05:39:15;;;;;;;12.93;10.18;;;;;;;18.15;75.28;100558.38;5089315;28;20103;-71
2022/08/16 05:41:40;;;;;;;14.68;10.13;;;;;;;18.18;75.08;100566.09;5089899;28;20030;-71
2022/08/16 05:44:05;;;;;;;13.40;9.43;;;;;;;18.20;75.41;100565.03;5083948;28;20386;-71
2022/08/16 05:46:31;;;;;;;12.80;10.35;;;;;;;18.26;75.06;100558.56;5084772;28;20463;-71
2022/08/16 05:49:00;;;;;;;14.43;10.38;;;;;;;18.30;75.20;100567.09;5087871;28;20028;-72
2022/08/16 05:51:25;;;;;;;13.05;10.80;;;;;;;18.33;75.28;100564.28;5085938;28;20033;-72
2022/08/16 05:53:50;;;;;;;14.43;10.75;;;;;;;18.37;74.83;100568.38;5084072;28;20456;-71
2022/08/16 05:56:16;;;;;;;12.88;10.60;;;;;;;18.41;74.35;100572.53;5085375;28;20039;-72
2022/08/16 05:58:41;;;;;;;15.73;11.07;;;;;;;18.45;74.42;100581.94;5087374;28;20491;-72
2022/08/16 06:01:07;;;;;;;14.82;11.50;;;;;;;18.48;74.95;100583.53;5085628;28;20020;-72
2022/08/16 06:03:32;;;;;;;13.82;11.55;;;;;;;18.52;75.07;100590.28;5083834;28;21418;-72
2022/08/16 06:05:58;;;;;;;17.00;12.52;;;;;;;18.57;73.98;100593.50;5082549;28;20163;-72
2022/08/16 06:08:23;;;;;;;16.95;12.95;;;;;;;18.61;73.95;100595.00;5080609;28;20107;-71
2022/08/16 06:10:48;;;;;;;18.00;13.50;;;;;;;18.65;73.94;100596.47;5084347;28;20081;-72
2022/08/16 06:13:14;;;;;;;16.90;12.70;;;;;;;18.69;74.36;100591.88;5087526;28;20044;-71
2022/08/16 06:15:39;;;;;;;19.38;13.50;;;;;;;18.73;74.18;100588.06;5084804;28;20024;-72
2022/08/16 06:18:04;;;;;;;18.00;13.48;;;;;;;18.78;73.92;100583.34;5081830;28;20035;-72
2022/08/16 06:20:29;;;;;;;18.70;13.20;;;;;;;18.83;74.19;100587.50;5087272;28;20076;-71
2022/08/16 06:22:56;;;;;;;18.13;12.82;;;;;;;18.86;73.87;100587.31;5083957;28;20052;-72
2022/08/16 06:25:22;;;;;;;18.63;13.00;;;;;;;18.91;74.68;100591.31;5088008;28;20047;-72
2022/08/16 06:27:47;;;;;;;19.30;13.90;;;;;;;18.94;73.99;100587.63;5084944;28;20131;-71
2022/08/16 06:30:13;;;;;;;19.70;13.65;;;;;;;18.97;73.66;100598.00;5086863;28;20126;-71
2022/08/16 06:32:39;;;;;;;19.92;13.48;;;;;;;19.02;73.85;100595.94;5085971;28;20092;-71
2022/08/16 06:35:05;;;;;;;19.05;12.75;;;;;;;19.04;73.54;100593.19;5088560;28;20028;-71
2022/08/16 06:37:30;;;;;;;17.85;13.60;;;;;;;19.09;73.61;100599.00;5085002;28;20036;-72
2022/08/16 06:39:55;;;;;;;16.58;12.73;;;;;;;19.13;73.39;100595.19;5084923;28;20038;-72
2022/08/16 06:42:21;;;;;;;17.10;13.45;;;;;;;19.20;73.57;100595.66;5085026;28;20020;-71
2022/08/16 06:44:46;;;;;;;17.40;12.48;;;;;;;19.25;73.34;100599.69;5086424;28;20020;-72
2022/08/16 06:47:12;;;;;;;16.38;12.20;;;;;;;19.32;73.16;100596.63;5083780;28;20024;-72
2022/08/16 06:49:38;;;;;;;17.17;12.43;;;;;;;19.38;72.83;100598.84;5084900;28;20494;-71
2022/08/16 06:52:03;;;;;;;14.50;11.57;;;;;;;19.44;72.17;100598.47;5079250;28;20024;-74
2022/08/16 06:54:29;;;;;;;13.73;11.90;;;;;;;19.49;71.86;100591.06;5083808;28;20024;-71
2022/08/16 06:56:54;;;;;;;14.48;11.27;;;;;;;19.55;72.01;100595.94;5086880;28;20029;-72
2022/08/16 06:59:20;;;;;;;16.65;12.27;;;;;;;19.63;70.69;100594.56;5080944;28;20035;-71
2022/08/16 07:01:45;;;;;;;16.13;12.52;;;;;;;19.68;70.67;100605.66;5073517;28;20028;-71
2022/08/16 07:04:10;;;;;;;15.82;11.93;;;;;;;19.76;70.28;100603.34;5078755;28;20111;-71
2022/08/16 07:06:36;;;;;;;14.50;11.43;;;;;;;19.83;70.67;100603.75;5086901;28;20031;-71
2022/08/16 07:09:02;;;;;;;18.10;12.27;;;;;;;19.91;70.42;100606.72;5084212;28;20380;-72
2022/08/16 07:11:27;;;;;;;14.60;11.80;;;;;;;19.98;70.34;100607.19;5086362;28;20029;-72
2022/08/16 07:13:53;;;;;;;15.60;12.02;;;;;;;20.05;68.92;100604.97;5086329;28;20035;-71
2022/08/16 07:16:19;;;;;;;16.83;12.15;;;;;;;20.13;68.83;100605.25;5083991;28;20034;-72
2022/08/16 07:18:45;;;;;;;17.75;11.90;;;;;;;20.21;67.67;100612.63;5084861;28;20054;-71
2022/08/16 07:21:13;;;;;;;12.43;11.00;;;;;;;20.26;67.22;100621.91;5088569;28;20098;-72
2022/08/16 07:23:40;;;;;;;14.32;10.75;;;;;;;20.34;65.73;100617.91;5089680;28;20032;-72
2022/08/16 07:26:08;;;;;;;13.57;10.30;;;;;;;20.39;65.20;100619.25;5086010;28;20024;-72
2022/08/16 07:28:34;;;;;;;15.55;10.55;;;;;;;20.46;65.00;100623.16;5090560;28;20032;-72
2022/08/16 07:31:01;;;;;;;16.77;10.48;;;;;;;20.56;65.24;100633.06;5084469;28;21394;-72
2022/08/16 07:33:28;;;;;;;12.55;9.57;;;;;;;20.61;64.84;100633.59;5078568;28;20112;-72
2022/08/16 07:35:53;;;;;;;12.10;9.65;;;;;;;20.66;64.56;100628.84;5075753;28;20591;-72
2022/08/16 07:38:18;;;;;;;12.90;9.60;;;;;;;20.74;63.99;100633.56;5076185;28;20279;-72
2022/08/16 07:40:43;;;;;;;12.70;10.55;;;;;;;20.79;63.77;100628.81;5078174;28;20032;-72
2022/08/16 07:43:09;;;;;;;12.63;9.90;;;;;;;20.86;63.41;100629.19;5077324;28;20020;-72
2022/08/16 07:45:35;;;;;;;12.13;9.65;;;;;;;20.92;63.36;100636.69;5079992;28;20028;-72
2022/08/16 07:48:01;;;;;;;12.20;9.98;;;;;;;20.97;63.37;100634.56;5082300;28;20046;-72
2022/08/16 07:50:27;;;;;;;14.23;9.57;;;;;;;21.05;62.76;100628.72;5074689;28;20107;-72
2022/08/16 07:52:52;;;;;;;12.75;9.45;;;;;;;21.09;62.54;100640.75;5075576;28;20051;-72
2022/08/16 07:55:18;;;;;;;10.90;9.25;;;;;;;21.18;62.79;100644.53;5082101;28;20069;-75
2022/08/16 07:57:43;;;;;;;11.20;8.98;;;;;;;21.24;61.58;100636.13;5081034;28;20032;-71
2022/08/16 08:00:11;;;;;;;12.15;8.95;;;;;;;21.29;61.44;100636.63;5079155;28;20053;-73
2022/08/16 08:02:36;;;;;;;11.82;8.98;;;;;;;21.36;61.78;100643.13;5078273;28;20036;-72
2022/08/16 08:05:02;;;;;;;11.63;8.70;;;;;;;21.42;61.55;100643.66;5087268;28;20028;-72
2022/08/16 08:07:28;;;;;;;9.85;7.72;;;;;;;21.49;60.96;100652.81;5080187;28;20074;-72
2022/08/16 08:09:54;;;;;;;11.35;7.80;;;;;;;21.55;59.95;100646.22;5082493;28;20496;-72
2022/08/16 08:12:19;;;;;;;11.15;8.18;;;;;;;21.59;59.04;100647.69;5082918;28;20032;-72
2022/08/16 08:14:46;;;;;;;11.80;8.10;;;;;;;21.63;59.66;100650.00;5078809;28;20089;-72
2022/08/16 08:17:11;;;;;;;9.27;7.90;;;;;;;21.66;59.24;100649.78;5078059;28;20028;-73
2022/08/16 08:19:37;;;;;;;12.88;8.25;;;;;;;21.71;59.32;100651.22;5078239;28;20027;-72
2022/08/16 08:22:04;;;;;;;10.35;7.60;;;;;;;21.76;58.92;100649.94;5078893;28;20043;-72
2022/08/16 08:24:31;;;;;;;9.68;7.35;;;;;;;21.81;59.09;100658.34;5080124;28;20082;-73
2022/08/16 08:26:57;;;;;;;9.43;7.65;;;;;;;21.88;59.84;100653.41;5080987;28;20480;-72
2022/08/16 08:29:23;;;;;;;10.00;7.70;;;;;;;21.93;59.11;100661.84;5075623;28;20051;-73
2022/08/16 08:31:50;;;;;;;8.45;7.05;;;;;;;22.01;59.49;100653.31;5078249;28;20036;-72
2022/08/16 08:34:16;;;;;;;9.25;6.75;;;;;;;22.09;59.82;100650.94;5079572;28;20119;-73
2022/08/16 08:36:41;;;;;;;10.68;6.50;;;;;;;22.18;58.89;100654.66;5078088;28;20034;-73
2022/08/16 08:39:07;;;;;;;10.90;7.35;;;;;;;22.23;57.61;100657.78;5070787;28;20024;-73
2022/08/16 08:41:32;;;;;;;8.20;7.13;;;;;;;22.29;58.11;100654.66;5063081;28;20064;-73
2022/08/16 08:43:58;;;;;;;13.73;7.10;;;;;;;22.34;57.75;100659.59;5064580;28;20028;-73
2022/08/16 08:46:24;;;;;;;11.98;6.88;;;;;;;22.41;58.13;100658.16;5068186;28;20029;-73
2022/08/16 08:48:51;;;;;;;8.02;6.43;;;;;;;22.49;57.89;100651.44;5078000;28;20110;-72
2022/08/16 08:51:17;;;;;;;7.72;6.70;;;;;;;22.57;57.49;100665.75;5077770;28;20039;-73
2022/08/16 08:53:44;;;;;;;9.40;6.57;;;;;;;22.64;56.99;100659.97;5076332;28;20034;-73
2022/08/16 08:56:09;;;;;;;9.10;6.38;;;;;;;22.70;56.95;100665.63;5078158;28;20060;-72
2022/08/16 08:58:36;;;;;;;7.63;6.30;;;;;;;22.76;56.87;100666.09;5078502;28;20085;-73
2022/08/16 09:01:03;;;;;;;7.80;6.03;;;;;;;22.81;55.26;100672.72;5079246;28;20032;-73
2022/08/16 09:03:29;;;;;;;6.20;5.25;;;;;;;22.87;55.47;100671.38;5080864;28;20084;-73
2022/08/16 09:05:54;;;;;;;6.80;5.60;;;;;;;22.92;55.01;100678.97;5079937;28;20154;-73
2022/08/16 09:08:20;;;;;;;8.98;5.70;;;;;;;22.98;54.92;100681.13;5079404;28;20376;-73
2022/08/16 09:10:45;;;;;;;7.72;6.20;;;;;;;23.04;54.88;100678.81;5079773;28;20135;-73
2022/08/16 09:13:11;;;;;;;7.75;5.43;;;;;;;23.13;54.45;100682.53;5079724;28;20036;-73
2022/08/16 09:15:36;;;;;;;10.27;5.80;;;;;;;23.21;53.86;100671.31;5078720;28;20056;-73
2022/08/16 09:18:02;;;;;;;7.60;5.00;;;;;;;23.27;53.80;100677.91;5079262;28;20078;-74
2022/08/16 09:20:29;;;;;;;6.53;4.95;;;;;;;23.32;53.48;100676.56;5076585;28;20019;-74
2022/08/16 09:22:55;;;;;;;7.50;5.80;;;;;;;23.38;52.98;100691.19;5080928;28;20058;-74
2022/08/16 09:25:21;;;;;;;13.40;6.10;;;;;;;23.42;53.11;100681.13;5082383;28;20564;-73
2022/08/16 09:27:47;;;;;;;7.28;5.45;;;;;;;23.44;51.81;100690.66;5082181;28;20040;-73
2022/08/16 09:30:12;;;;;;;7.47;5.82;;;;;;;23.44;51.81;100685.34;5080547;28;20498;-73
2022/08/16 09:32:38;;;;;;;7.07;5.18;;;;;;;23.49;53.49;100677.84;5081448;28;20028;-74
2022/08/16 09:35:04;;;;;;;6.63;5.32;;;;;;;23.55;51.40;100684.44;5080421;28;20027;-74
2022/08/16 09:37:31;;;;;;;7.95;5.15;;;;;;;23.62;51.10;100682.97;5078351;28;20036;-73
2022/08/16 09:39:57;;;;;;;5.93;5.13;;;;;;;23.72;51.96;100682.19;5082321;28;20020;-73
2022/08/16 09:42:23;;;;;;;8.27;5.47;;;;;;;23.79;50.29;100684.19;5081929;28;20024;-73
2022/08/16 09:44:48;;;;;;;6.57;5.45;;;;;;;23.87;49.72;100691.50;5080459;28;20032;-73
2022/08/16 09:47:13;;;;;;;11.88;5.45;;;;;;;23.92;50.09;100688.47;5077539;28;20056;-73
2022/08/16 09:49:39;;;;;;;7.65;5.35;;;;;;;23.96;49.40;100687.22;5080089;28;20599;-75
2022/08/16 09:52:05;;;;;;;8.57;5.60;;;;;;;24.01;49.68;100685.06;5077526;28;20355;-74
2022/08/16 09:54:30;;;;;;;8.80;5.18;;;;;;;24.06;49.21;100688.19;5077806;28;20050;-74
2022/08/16 09:56:56;;;;;;;5.60;4.63;;;;;;;24.12;48.60;100683.28;5077912;28;20494;-74
2022/08/16 09:59:23;;;;;;;6.03;4.70;;;;;;;24.18;49.02;100682.78;5073093;28;20161;-75
2022/08/16 10:01:50;;;;;;;5.75;4.88;;;;;;;24.21;47.71;100683.34;5074711;28;20382;-73
2022/08/16 10:04:16;;;;;;;7.97;5.13;;;;;;;24.28;48.45;100677.50;5075466;28;20092;-73
2022/08/16 10:06:43;;;;;;;8.98;5.22;;;;;;;24.34;49.75;100683.13;5075485;28;20027;-73
2022/08/16 10:09:10;;;;;;;7.88;5.10;;;;;;;24.38;47.28;100679.22;5073647;28;20030;-73
2022/08/16 10:14:22;;;;;;;6.63;5.40;;;;;;;24.48;47.54;100686.38;5079860;28;20077;-73
2022/08/16 10:16:47;;;;;;;7.50;4.72;;;;;;;24.50;47.12;100687.09;5076485;28;20480;-78
2022/08/16 10:19:14;;;;;;;6.15;4.60;;;;;;;24.54;47.23;100686.69;5077628;28;20039;-74
2022/08/16 10:21:40;;;;;;;6.40;4.90;;;;;;;24.58;46.53;100687.28;5074995;28;20024;-75
2022/08/16 10:24:06;;;;;;;7.20;4.68;;;;;;;24.63;46.84;100682.38;5075956;28;20036;-74
2022/08/16 10:26:32;;;;;;;9.15;4.60;;;;;;;24.70;46.81;100688.88;5077854;28;20050;-74
2022/08/16 10:28:58;;;;;;;6.57;5.05;;;;;;;24.77;46.05;100680.34;5077626;28;20032;-73
2022/08/16 10:31:24;;;;;;;7.72;4.32;;;;;;;24.82;45.75;100681.63;5079800;28;20032;-73
2022/08/16 10:33:50;;;;;;;8.10;4.88;;;;;;;24.89;45.33;100687.25;5080475;28;20089;-75
2022/08/16 10:36:15;;;;;;;6.88;4.57;;;;;;;24.95;44.46;100685.84;5078267;28;20027;-74
2022/08/16 10:38:41;;;;;;;6.43;3.95;;;;;;;25.03;44.87;100687.81;5080083;28;20086;-73
2022/08/16 10:41:07;;;;;;;6.40;3.92;;;;;;;25.07;44.15;100682.09;5078260;28;20416;-73
2022/08/16 10:43:34;;;;;;;5.63;4.10;;;;;;;25.16;45.53;100693.72;5077730;28;20034;-74
2022/08/16 10:46:02;;;;;;;5.70;4.10;;;;;;;25.20;43.22;100692.47;5077937;28;20497;-74
2022/08/16 10:48:28;;;;;;;5.75;3.85;;;;;;;25.28;43.11;100687.28;5074437;28;20122;-73
2022/08/16 10:50:57;;;;;;;8.73;3.67;;;;;;;25.39;44.55;100693.47;5076813;28;20546;-74
2022/08/16 10:53:23;;;;;;;8.88;4.00;;;;;;;25.52;43.33;100694.03;5075279;28;20111;-74
2022/08/16 10:55:48;;;;;;;6.93;4.03;;;;;;;25.62;42.29;100690.53;5076876;28;20419;-73
2022/08/16 10:58:15;;;;;;;11.23;4.18;;;;;;;25.71;41.86;100697.69;5074363;28;20114;-73
2022/08/16 11:00:41;;;;;;;5.25;3.85;;;;;;;25.81;41.67;100695.00;5074907;28;20040;-74
2022/08/16 11:03:08;;;;;;;4.97;3.58;;;;;;;25.88;42.27;100691.63;5079666;28;20025;-74
2022/08/16 11:05:36;;;;;;;6.03;3.90;;;;;;;25.93;41.28;100688.50;5074428;28;20112;-74
2022/08/16 11:08:06;;;;;;;5.50;3.70;;;;;;;25.96;41.65;100700.72;5070093;28;20063;-74
2022/08/16 11:10:35;;;;;;;13.00;4.70;;;;;;;25.98;41.38;100698.72;5075347;28;20055;-73
2022/08/16 11:13:01;;;;;;;7.85;3.75;;;;;;;26.02;41.57;100708.13;5072412;28;20028;-74
2022/08/16 11:15:26;;;;;;;7.13;3.80;;;;;;;26.05;41.07;100710.50;5073660;28;20035;-74